Time;durP1;ratioP1;P1;durP2;ratioP2;P2;SDS_P1;SDS_P2;PMS_P1;PMS_P2;Temp;Humidity;BMP_temperature;BMP_pressure;BME280_temperature;BME280_humidity;BME280_pressure;Samples;Min_cycle;Max_cycle;Signal;HPM_P1;HPM_P2
2022/12/08 00:01:28;;;;;;;19.65;5.70;;;;;;;-0.41;96.12;91981.25;5093742;28;20043;-77
2022/12/08 00:03:54;;;;;;;12.70;4.88;;;;;;;-0.43;96.57;91976.34;5091836;28;20028;-77
2022/12/08 00:09:22;;;;;;;6.80;3.45;;;;;;;-0.44;96.50;91967.06;5093568;28;20047;-77
2022/12/08 00:12:11;;;;;;;11.20;3.42;;;;;;;-0.42;96.16;91964.28;5092235;28;20040;-77
2022/12/08 00:14:44;;;;;;;9.27;3.50;;;;;;;-0.42;96.04;91969.41;5093747;28;20126;-77
2022/12/08 00:17:12;;;;;;;6.20;2.78;;;;;;;-0.40;95.61;91971.75;5090974;28;20194;-77
2022/12/08 00:19:38;;;;;;;8.25;3.17;;;;;;;-0.40;95.64;91975.09;5092929;28;20035;-77
2022/12/08 00:22:05;;;;;;;8.80;3.33;;;;;;;-0.41;95.13;91978.69;5093871;28;20131;-77
2022/12/08 00:24:34;;;;;;;4.88;2.60;;;;;;;-0.39;95.36;91973.31;5093064;28;20085;-77
2022/12/08 00:27:00;;;;;;;7.50;3.22;;;;;;;-0.42;94.95;91967.63;5107247;28;20052;-77
2022/12/08 00:29:26;;;;;;;7.07;3.38;;;;;;;-0.41;94.95;91978.69;5091694;28;20123;-77
2022/12/08 00:31:52;;;;;;;10.73;3.40;;;;;;;-0.43;94.58;91967.84;5074824;28;20126;-77
2022/12/08 00:34:17;;;;;;;6.47;3.53;;;;;;;-0.43;95.08;91970.41;5092991;28;20535;-77
2022/12/08 00:36:43;;;;;;;8.13;3.25;;;;;;;-0.43;94.84;91967.84;5089516;28;20040;-77
2022/12/08 00:39:10;;;;;;;10.32;3.03;;;;;;;-0.45;94.55;91970.66;5091371;28;20127;-77
2022/12/08 00:44:20;;;;;;;5.25;2.90;;;;;;;-0.45;94.78;91972.44;5092769;28;20032;-77
2022/12/08 00:46:46;;;;;;;5.65;2.58;;;;;;;-0.47;95.29;91964.19;5091320;28;20127;-77
2022/12/08 00:49:13;;;;;;;7.35;2.70;;;;;;;-0.45;94.66;91965.50;5092378;28;20032;-77
2022/12/08 00:51:38;;;;;;;5.65;2.30;;;;;;;-0.45;94.32;91970.66;5091119;28;20044;-77
2022/12/08 00:54:05;;;;;;;4.88;2.30;;;;;;;-0.45;93.62;91969.84;5091022;28;20105;-77
2022/12/08 00:56:31;;;;;;;4.50;2.50;;;;;;;-0.44;93.14;91968.88;5091019;28;20039;-77
2022/12/08 00:58:57;;;;;;;5.43;2.00;;;;;;;-0.43;93.34;91957.53;5091646;28;20520;-77
2022/12/08 01:01:23;;;;;;;4.68;2.00;;;;;;;-0.40;94.32;91964.03;5092511;28;20032;-77
2022/12/08 01:03:49;;;;;;;3.97;2.08;;;;;;;-0.40;93.83;91964.81;5091046;28;20028;-77
2022/12/08 01:06:15;;;;;;;4.35;1.98;;;;;;;-0.40;93.38;91967.41;5108260;28;20042;-77
2022/12/08 01:08:41;;;;;;;4.28;2.00;;;;;;;-0.42;93.82;91959.13;5089572;28;20036;-77
2022/12/08 01:11:13;;;;;;;3.45;1.80;;;;;;;-0.43;93.34;91962.69;5092035;28;20032;-77
2022/12/08 01:13:39;;;;;;;5.65;1.92;;;;;;;-0.43;93.43;91962.69;5092299;28;20059;-77
2022/12/08 01:16:05;;;;;;;4.07;2.08;;;;;;;-0.44;93.64;91961.16;5090186;28;20066;-77
2022/12/08 01:18:31;;;;;;;4.28;2.15;;;;;;;-0.45;93.94;91959.56;5089198;28;20031;-77
2022/12/08 01:21:05;;;;;;;3.53;2.13;;;;;;;-0.47;94.05;91962.41;5091915;28;20036;-77
2022/12/08 01:23:31;;;;;;;3.85;2.13;;;;;;;-0.50;93.46;91957.69;5091642;28;20075;-77
2022/12/08 01:26:05;;;;;;;4.20;2.33;;;;;;;-0.48;93.17;91955.69;5073549;28;20055;-77
2022/12/08 01:28:31;;;;;;;5.20;2.55;;;;;;;-0.46;94.28;91963.94;5073362;28;20397;-77
2022/12/08 01:30:58;;;;;;;5.70;2.70;;;;;;;-0.48;95.14;91960.03;5090313;28;20032;-77
2022/12/08 01:33:24;;;;;;;5.00;2.53;;;;;;;-0.48;95.08;91967.75;5090729;28;20031;-77
2022/12/08 01:35:50;;;;;;;6.22;2.80;;;;;;;-0.51;95.02;91966.44;5090449;28;20039;-77
2022/12/08 01:38:16;;;;;;;5.22;2.70;;;;;;;-0.48;94.60;91967.75;5091548;28;20101;-77
2022/12/08 01:40:42;;;;;;;4.95;2.80;;;;;;;-0.50;95.24;91964.63;5090277;28;20042;-76
2022/12/08 01:43:16;;;;;;;4.95;2.65;;;;;;;-0.53;93.96;91957.38;5087820;28;20482;-77
2022/12/08 01:45:41;;;;;;;4.97;2.85;;;;;;;-0.51;94.37;91952.81;5088265;28;20035;-76
2022/12/08 01:48:13;;;;;;;5.45;2.80;;;;;;;-0.51;93.87;91960.50;5091228;28;20024;-76
2022/12/08 01:50:41;;;;;;;4.80;2.47;;;;;;;-0.50;93.91;91951.78;5088691;28;20031;-76
2022/12/08 01:53:12;;;;;;;4.38;2.35;;;;;;;-0.49;94.03;91953.34;5089734;28;20100;-76
2022/12/08 01:55:42;;;;;;;5.00;2.47;;;;;;;-0.46;93.54;91951.09;5090344;28;20031;-76
2022/12/08 01:58:17;;;;;;;4.15;2.17;;;;;;;-0.47;93.61;91951.34;5091054;28;20111;-76
2022/12/08 02:00:43;;;;;;;5.05;2.47;;;;;;;-0.47;93.25;91941.03;5088908;28;20028;-76
2022/12/08 02:03:15;;;;;;;4.88;2.55;;;;;;;-0.51;93.23;91940.72;5088832;28;20426;-76
2022/12/08 02:05:41;;;;;;;6.50;2.50;;;;;;;-0.51;93.33;91942.53;5069375;28;20033;-76
2022/12/08 02:08:10;;;;;;;5.35;2.60;;;;;;;-0.50;92.90;91939.69;5081912;28;20051;-76
2022/12/08 02:10:39;;;;;;;4.45;2.47;;;;;;;-0.47;92.89;91941.03;5090877;28;20032;-76
2022/12/08 02:13:09;;;;;;;4.80;2.30;;;;;;;-0.47;92.76;91936.69;5086573;28;20036;-76
2022/12/08 02:16:12;;;;;;;4.55;2.35;;;;;;;-0.47;92.75;91941.03;5090803;28;20485;-76
2022/12/08 02:19:07;;;;;;;4.40;2.40;;;;;;;-0.49;92.38;91938.69;5089470;28;20127;-76
2022/12/08 02:21:50;;;;;;;5.75;2.10;;;;;;;-0.50;91.97;91931.97;5087363;28;20129;-76
2022/12/08 02:24:47;;;;;;;6.57;2.10;;;;;;;-0.53;92.06;91934.25;5089603;28;20517;-76
2022/12/08 02:27:34;;;;;;;4.50;2.20;;;;;;;-0.58;92.01;91934.19;5090701;28;20032;-76
2022/12/08 02:30:19;;;;;;;4.25;2.28;;;;;;;-0.66;92.12;91930.94;5104683;28;20505;-76
2022/12/08 02:32:57;;;;;;;3.47;2.05;;;;;;;-0.70;92.69;91926.50;5089544;28;20386;-76
2022/12/08 02:35:31;;;;;;;6.18;2.05;;;;;;;-0.72;92.49;91924.19;5090666;28;20063;-76
2022/12/08 02:38:06;;;;;;;3.10;1.80;;;;;;;-0.75;92.32;91914.34;5090589;28;20335;-76
2022/12/08 02:41:11;;;;;;;4.13;2.00;;;;;;;-0.74;92.58;91915.13;5090547;28;20032;-76
2022/12/08 02:44:01;;;;;;;4.18;2.30;;;;;;;-0.73;91.84;91917.47;5090086;28;20073;-75
2022/12/08 02:46:36;;;;;;;4.28;2.38;;;;;;;-0.73;92.06;91909.75;5090165;28;20122;-76
2022/12/08 02:49:02;;;;;;;3.80;2.20;;;;;;;-0.72;90.93;91903.63;5089586;28;20105;-76
2022/12/08 02:51:28;;;;;;;4.30;2.50;;;;;;;-0.73;92.22;91909.75;5089582;28;20040;-76
2022/12/08 02:53:54;;;;;;;6.18;2.50;;;;;;;-0.75;92.51;91903.28;5090486;28;20048;-76
2022/12/08 02:56:47;;;;;;;4.40;2.20;;;;;;;-0.77;92.60;91910.44;5087544;28;20507;-76
2022/12/08 02:59:24;;;;;;;4.07;2.15;;;;;;;-0.79;92.31;91902.19;5089708;28;20443;-76
2022/12/08 03:02:14;;;;;;;5.22;2.40;;;;;;;-0.79;91.52;91913.22;5090699;28;20035;-76
2022/12/08 03:04:54;;;;;;;4.07;2.20;;;;;;;-0.81;91.33;91909.34;5090652;28;20086;-76
2022/12/08 03:07:30;;;;;;;4.72;2.10;;;;;;;-0.83;91.11;91904.44;5089174;28;20036;-76
2022/12/08 03:10:36;;;;;;;6.78;2.25;;;;;;;-0.84;91.05;91895.94;5088929;28;20043;-76
2022/12/08 03:13:18;;;;;;;5.18;2.33;;;;;;;-0.84;90.98;91901.06;5060825;28;20036;-76
2022/12/08 03:15:48;;;;;;;4.38;2.42;;;;;;;-0.82;90.55;91893.16;5092639;28;20035;-76
2022/12/08 03:18:17;;;;;;;4.82;2.55;;;;;;;-0.80;90.60;91898.84;5093110;28;20027;-76
2022/12/08 03:20:46;;;;;;;6.78;2.28;;;;;;;-0.79;90.52;91894.47;5093007;28;20525;-76
2022/12/08 03:23:16;;;;;;;4.28;2.17;;;;;;;-0.78;89.91;91890.91;5093042;28;20036;-76
2022/12/08 03:25:57;;;;;;;3.10;1.83;;;;;;;-0.77;89.89;91893.22;5093517;28;20043;-76
2022/12/08 03:28:23;;;;;;;4.20;2.00;;;;;;;-0.77;90.20;91885.50;5075612;28;20290;-76
2022/12/08 03:30:53;;;;;;;3.97;1.90;;;;;;;-0.75;89.96;91883.50;5094130;28;20055;-76
2022/12/08 03:33:25;;;;;;;3.42;1.95;;;;;;;-0.72;89.35;91879.69;5092011;28;20120;-76
2022/12/08 03:35:52;;;;;;;4.00;2.00;;;;;;;-0.73;89.42;91885.84;5109624;28;20043;-76
2022/12/08 03:38:17;;;;;;;4.82;2.30;;;;;;;-0.75;89.54;91882.72;5093019;28;20497;-76
2022/12/08 03:41:17;;;;;;;3.92;2.20;;;;;;;-0.76;89.32;91881.94;5092721;28;20031;-76
2022/12/08 03:43:29;;;;;;;4.40;2.00;;;;;;;-0.78;89.74;91881.41;5093372;28;20036;-76
2022/12/08 03:45:54;;;;;;;4.43;2.05;;;;;;;-0.80;89.70;91880.84;5088821;28;20039;-76
2022/12/08 03:48:20;;;;;;;4.05;2.10;;;;;;;-0.82;90.54;91876.94;5091398;28;20048;-76
2022/12/08 03:50:45;;;;;;;3.40;2.00;;;;;;;-0.86;90.75;91869.72;5092083;28;20668;-76
2022/12/08 03:53:11;;;;;;;3.83;2.25;;;;;;;-0.89;91.80;91866.81;5091853;28;20056;-76
2022/12/08 03:55:36;;;;;;;4.88;1.90;;;;;;;-0.92;91.90;91867.28;5093675;28;20497;-76
2022/12/08 03:58:02;;;;;;;4.18;2.03;;;;;;;-0.95;92.83;91867.72;5090821;28;20042;-76
2022/12/08 04:00:28;;;;;;;3.75;2.00;;;;;;;-1.00;92.56;91870.22;5075312;28;20063;-76
2022/12/08 04:02:53;;;;;;;4.80;1.75;;;;;;;-1.03;92.17;91868.13;5075271;28;20048;-76
2022/12/08 04:05:19;;;;;;;3.47;2.00;;;;;;;-1.08;92.10;91861.88;5093731;28;20043;-76
2022/12/08 04:07:44;;;;;;;4.18;2.08;;;;;;;-1.06;92.46;91865.00;5093518;28;20032;-76
2022/12/08 04:10:10;;;;;;;4.40;2.20;;;;;;;-1.08;91.84;91861.06;5091332;28;20036;-76
2022/12/08 04:12:35;;;;;;;5.47;2.60;;;;;;;-1.10;91.83;91870.81;5092076;28;20134;-76
2022/12/08 04:15:01;;;;;;;4.72;2.35;;;;;;;-1.09;90.89;91862.09;5091827;28;20075;-76
2022/12/08 04:17:26;;;;;;;5.07;2.58;;;;;;;-1.10;90.46;91860.56;5091526;28;20134;-76
2022/12/08 04:19:52;;;;;;;4.85;2.10;;;;;;;-1.09;89.97;91860.31;5081951;28;20051;-77
2022/12/08 04:22:17;;;;;;;4.05;2.00;;;;;;;-1.05;90.03;91852.94;5093179;28;20111;-76
2022/12/08 04:24:43;;;;;;;6.35;2.65;;;;;;;-1.07;90.35;91852.38;5074455;28;20123;-77
2022/12/08 04:27:08;;;;;;;4.10;2.10;;;;;;;-1.08;90.32;91855.94;5092594;28;20047;-76
2022/12/08 04:29:34;;;;;;;5.15;2.13;;;;;;;-1.12;90.80;91857.44;5091549;28;20023;-76
2022/12/08 04:32:00;;;;;;;5.10;2.20;;;;;;;-1.14;91.30;91857.66;5092874;28;20562;-76
2022/12/08 04:34:25;;;;;;;3.65;2.08;;;;;;;-1.12;91.27;91852.28;5074964;28;20040;-76
2022/12/08 04:36:51;;;;;;;4.47;2.17;;;;;;;-1.10;90.85;91858.75;5092507;28;20039;-76
2022/12/08 04:39:16;;;;;;;4.97;2.13;;;;;;;-1.07;90.96;91860.84;5091469;28;20093;-76
2022/12/08 04:41:42;;;;;;;4.00;1.98;;;;;;;-1.05;90.58;91853.69;5090589;28;20043;-76
2022/12/08 04:44:07;;;;;;;3.90;2.08;;;;;;;-1.01;90.23;91859.16;5091265;28;20028;-76
2022/12/08 04:46:33;;;;;;;3.55;1.90;;;;;;;-1.00;90.28;91857.38;5091467;28;20040;-76
2022/12/08 04:48:58;;;;;;;4.68;1.85;;;;;;;-0.99;90.06;91851.22;5091073;28;20048;-76
2022/12/08 04:51:26;;;;;;;4.15;2.10;;;;;;;-0.98;89.77;91856.13;5091045;28;20032;-76
2022/12/08 04:53:51;;;;;;;3.95;2.00;;;;;;;-1.01;90.39;91848.91;5070239;28;20056;-76
2022/12/08 04:56:18;;;;;;;4.68;2.17;;;;;;;-1.01;90.23;91851.47;5054505;28;20043;-76
2022/12/08 04:58:44;;;;;;;4.90;2.20;;;;;;;-1.00;90.38;91854.81;5054230;28;20036;-76
2022/12/08 05:01:11;;;;;;;3.63;2.17;;;;;;;-0.98;89.77;91847.66;5070180;28;20032;-76
2022/12/08 05:03:36;;;;;;;4.32;2.28;;;;;;;-0.95;89.44;91852.31;5071287;28;20036;-76
2022/12/08 05:06:02;;;;;;;4.15;2.17;;;;;;;-0.96;89.05;91848.19;5037450;28;20414;-76
2022/12/08 05:08:28;;;;;;;3.42;2.00;;;;;;;-0.96;88.92;91850.78;5071803;28;20032;-76
2022/12/08 05:11:01;;;;;;;4.53;2.22;;;;;;;-1.00;88.91;91847.88;5038549;28;20036;-76
2022/12/08 05:13:26;;;;;;;3.78;2.25;;;;;;;-1.00;89.28;91852.25;5071902;28;20040;-76
2022/12/08 05:15:52;;;;;;;5.50;2.25;;;;;;;-1.02;88.93;91846.53;5071650;28;20039;-76
2022/12/08 05:18:17;;;;;;;5.13;2.20;;;;;;;-1.01;88.63;91853.22;5071615;28;20115;-76
2022/12/08 05:20:43;;;;;;;4.20;2.15;;;;;;;-1.05;88.41;91850.34;5069600;28;20367;-76
2022/12/08 05:23:08;;;;;;;8.32;2.67;;;;;;;-1.05;88.40;91850.34;5050172;28;20304;-76
2022/12/08 05:25:34;;;;;;;4.90;2.65;;;;;;;-1.05;88.08;91850.34;5071937;28;20025;-76
2022/12/08 05:27:59;;;;;;;4.13;2.10;;;;;;;-1.02;88.00;91846.53;5052345;28;20038;-76
2022/12/08 05:30:25;;;;;;;8.25;2.20;;;;;;;-1.00;87.67;91842.72;5053586;28;20048;-76
2022/12/08 05:32:50;;;;;;;4.53;2.10;;;;;;;-1.00;87.27;91839.38;5051526;28;20455;-76
2022/12/08 05:35:16;;;;;;;4.10;2.30;;;;;;;-0.98;86.97;91848.41;5071882;28;20037;-76
2022/12/08 05:37:42;;;;;;;4.43;2.50;;;;;;;-1.00;87.75;91835.03;5051704;28;20131;-76
2022/12/08 05:40:07;;;;;;;4.43;2.55;;;;;;;-0.99;87.90;91841.75;5049359;28;20063;-76
2022/12/08 05:42:33;;;;;;;4.93;2.20;;;;;;;-0.98;87.44;91845.09;5055288;28;20075;-76
2022/12/08 05:44:59;;;;;;;4.30;2.20;;;;;;;-0.95;86.95;91847.19;5048093;28;20106;-76
2022/12/08 05:47:25;;;;;;;3.83;1.95;;;;;;;-0.95;86.86;91847.19;5063301;28;20119;-76
2022/12/08 05:49:50;;;;;;;6.45;2.42;;;;;;;-0.97;87.40;91844.81;5048470;28;20045;-76
2022/12/08 05:52:16;;;;;;;3.70;2.05;;;;;;;-0.98;87.92;91857.94;5055012;28;20445;-77
2022/12/08 05:54:42;;;;;;;5.10;2.25;;;;;;;-0.98;87.39;91851.00;5051566;28;20037;-77
2022/12/08 05:57:07;;;;;;;3.90;2.13;;;;;;;-0.98;87.32;91848.41;5050949;28;20086;-76
2022/12/08 05:59:33;;;;;;;5.20;2.10;;;;;;;-0.98;87.25;91847.66;5052013;28;20516;-76
2022/12/08 06:01:59;;;;;;;4.80;2.33;;;;;;;-0.99;86.65;91844.31;5071092;28;20060;-76
2022/12/08 06:04:24;;;;;;;3.90;1.90;;;;;;;-0.98;86.81;91848.41;5067986;28;20036;-77
2022/12/08 06:06:50;;;;;;;6.95;2.30;;;;;;;-0.97;86.61;91844.81;5049541;28;20045;-77
2022/12/08 06:09:15;;;;;;;4.90;2.20;;;;;;;-0.98;87.06;91852.78;5054335;28;20040;-77
2022/12/08 06:11:41;;;;;;;5.70;2.22;;;;;;;-1.01;87.33;91842.94;5053423;28;20036;-77
2022/12/08 06:14:11;;;;;;;4.90;2.45;;;;;;;-1.02;87.35;91841.41;5070876;28;20036;-76
2022/12/08 06:16:36;;;;;;;4.47;2.42;;;;;;;-1.03;86.95;91845.00;5054971;28;20024;-77
2022/12/08 06:19:02;;;;;;;4.15;2.45;;;;;;;-1.03;87.15;91850.13;5062181;28;20040;-75
2022/12/08 06:21:27;;;;;;;5.65;2.58;;;;;;;-1.05;87.49;91846.00;5068246;28;20037;-76
2022/12/08 06:23:54;;;;;;;4.57;2.63;;;;;;;-1.05;87.93;91843.44;5052429;28;20037;-77
2022/12/08 06:26:20;;;;;;;7.15;2.40;;;;;;;-1.03;87.97;91847.56;5050851;28;20127;-76
2022/12/08 06:28:47;;;;;;;5.00;2.63;;;;;;;-1.05;87.79;91846.00;5067140;28;20479;-77
2022/12/08 06:31:21;;;;;;;6.68;3.00;;;;;;;-1.03;88.52;91850.13;5050167;28;20080;-77
2022/12/08 06:33:48;;;;;;;4.32;2.50;;;;;;;-1.03;88.52;91852.72;5066673;28;20028;-77
2022/12/08 06:36:15;;;;;;;4.38;2.28;;;;;;;-1.05;88.63;91846.00;5067137;28;20051;-76
2022/12/08 06:38:41;;;;;;;4.40;2.40;;;;;;;-1.03;89.09;91847.56;5068225;28;20029;-76
2022/12/08 06:41:07;;;;;;;5.63;3.47;;;;;;;-1.08;88.50;91849.03;5065888;28;20422;-77
2022/12/08 06:43:33;;;;;;;5.85;2.47;;;;;;;-1.05;89.19;91853.69;5027463;28;20406;-77
2022/12/08 06:46:00;;;;;;;6.00;2.53;;;;;;;-1.03;89.86;91850.13;5068929;28;20040;-77
2022/12/08 06:48:25;;;;;;;3.88;2.30;;;;;;;-1.07;90.63;91850.59;5069578;28;20126;-77
2022/12/08 06:50:51;;;;;;;4.93;2.67;;;;;;;-1.05;90.30;91853.69;5037632;28;20126;-77
2022/12/08 06:53:17;;;;;;;6.25;3.00;;;;;;;-1.04;90.28;91857.03;5073014;28;20061;-77
2022/12/08 06:55:51;;;;;;;4.50;2.50;;;;;;;-1.03;91.15;91855.28;5057720;28;20493;-77
2022/12/08 06:58:17;;;;;;;5.90;2.55;;;;;;;-1.03;91.18;91860.41;5073865;28;20120;-76
2022/12/08 07:00:43;;;;;;;4.90;2.42;;;;;;;-1.02;91.19;91867.09;5045715;28;20494;-77
2022/12/08 07:03:10;;;;;;;5.18;2.35;;;;;;;-0.99;91.38;91861.50;5041372;28;20072;-77
2022/12/08 07:05:36;;;;;;;3.75;2.25;;;;;;;-0.96;91.72;91861.03;5069597;28;20028;-77
2022/12/08 07:08:03;;;;;;;4.85;2.35;;;;;;;-0.95;92.38;91860.78;5053421;28;20048;-76
2022/12/08 07:10:28;;;;;;;4.93;2.60;;;;;;;-0.92;92.88;91859.56;5049065;28;20191;-77
2022/12/08 07:12:54;;;;;;;3.92;2.10;;;;;;;-0.90;92.59;91876.31;5051956;28;20137;-77
2022/12/08 07:15:20;;;;;;;4.63;2.60;;;;;;;-0.90;92.87;91866.03;5075118;28;20566;-77
2022/12/08 07:17:47;;;;;;;4.70;2.60;;;;;;;-0.88;93.42;91869.16;5054387;28;20474;-77
2022/12/08 07:20:13;;;;;;;5.78;2.60;;;;;;;-0.86;93.05;91868.91;5056207;28;20528;-77
2022/12/08 07:22:38;;;;;;;4.00;2.33;;;;;;;-0.83;93.53;91868.47;5056459;28;20044;-77
2022/12/08 07:25:04;;;;;;;4.40;2.47;;;;;;;-0.80;93.15;91868.00;5055941;28;20040;-77
2022/12/08 07:27:30;;;;;;;4.43;2.40;;;;;;;-0.78;93.29;91871.13;5080788;28;20036;-77
2022/12/08 07:29:56;;;;;;;5.07;2.90;;;;;;;-0.75;93.63;91873.22;5056366;28;20068;-78
2022/12/08 07:32:21;;;;;;;6.72;3.42;;;;;;;-0.71;94.19;91876.88;5074782;28;20101;-78
2022/12/08 07:34:47;;;;;;;6.85;3.33;;;;;;;-0.67;94.50;91870.28;5055204;28;20044;-77
2022/12/08 07:37:12;;;;;;;7.40;4.70;;;;;;;-0.62;94.48;91874.72;5068430;28;20166;-77
2022/12/08 07:39:38;;;;;;;8.45;5.22;;;;;;;-0.57;94.48;91869.66;5068113;28;20048;-76
2022/12/08 07:42:04;;;;;;;5.68;3.78;;;;;;;-0.49;93.95;91869.28;5053669;28;20050;-77
2022/12/08 07:44:30;;;;;;;5.85;3.28;;;;;;;-0.39;94.32;91871.22;5039912;28;20042;-77
2022/12/08 07:46:56;;;;;;;5.20;2.60;;;;;;;-0.31;93.87;91863.13;5034502;28;20408;-77
2022/12/08 07:49:21;;;;;;;4.43;2.30;;;;;;;-0.19;94.04;91859.69;5054868;28;20036;-77
2022/12/08 07:51:47;;;;;;;4.40;2.40;;;;;;;-0.10;93.56;91859.03;5056441;28;20052;-77
2022/12/08 07:54:13;;;;;;;4.88;2.50;;;;;;;0.03;93.04;91863.06;5052371;28;20098;-77
2022/12/08 07:56:39;;;;;;;4.60;2.38;;;;;;;0.17;92.91;91866.84;5075992;28;20040;-78
2022/12/08 07:59:05;;;;;;;4.47;2.45;;;;;;;0.32;92.24;91857.78;5066138;28;20039;-76
2022/12/08 08:01:33;;;;;;;3.95;2.10;;;;;;;0.56;91.16;91856.53;5049667;28;20028;-77
2022/12/08 08:04:03;;;;;;;6.00;2.30;;;;;;;0.78;89.96;91859.09;5056986;28;20036;-77
2022/12/08 08:06:29;;;;;;;4.07;2.30;;;;;;;1.13;88.45;91857.13;5064450;28;20036;-76
2022/12/08 08:08:55;;;;;;;5.32;2.28;;;;;;;1.45;86.92;91860.50;5055265;28;20040;-78
2022/12/08 08:11:21;;;;;;;4.45;2.35;;;;;;;1.78;86.99;91855.34;5052245;28;20478;-78
2022/12/08 08:13:46;;;;;;;3.95;2.30;;;;;;;2.36;84.81;91853.63;5056404;28;20033;-77
2022/12/08 08:16:12;;;;;;;4.68;2.63;;;;;;;2.47;82.49;91857.03;5075109;28;20071;-77
2022/12/08 08:18:38;;;;;;;4.55;2.53;;;;;;;2.56;81.76;91852.94;5066869;28;20033;-80
2022/12/08 08:21:05;;;;;;;4.30;2.30;;;;;;;2.68;81.40;91847.59;5043679;28;20115;-80
2022/12/08 08:23:31;;;;;;;5.68;2.55;;;;;;;2.88;79.96;91852.00;5053475;28;20115;-80
2022/12/08 08:26:02;;;;;;;6.30;2.47;;;;;;;3.48;72.88;91844.63;5054385;28;20056;-80
2022/12/08 08:28:29;;;;;;;4.75;2.60;;;;;;;3.71;70.17;91848.53;5060843;28;20040;-79
2022/12/08 08:30:55;;;;;;;4.05;2.45;;;;;;;3.75;71.10;91845.16;5072420;28;20036;-79
2022/12/08 08:33:21;;;;;;;5.90;2.40;;;;;;;3.97;71.25;91852.66;5061772;28;20167;-79
2022/12/08 08:35:48;;;;;;;7.05;3.25;;;;;;;3.81;72.91;91848.53;5064444;28;20044;-82
2022/12/08 08:38:15;;;;;;;10.45;5.20;;;;;;;3.71;72.72;91854.47;5068417;28;20025;-79
2022/12/08 08:40:40;;;;;;;6.97;4.07;;;;;;;3.71;71.62;91853.69;5068846;28;20403;-80
2022/12/08 08:43:06;;;;;;;6.50;3.90;;;;;;;3.73;69.77;91849.03;5052144;28;20044;-79
2022/12/08 08:45:32;;;;;;;6.82;4.47;;;;;;;3.83;70.68;91856.03;5046954;28;20041;-80
2022/12/08 08:47:58;;;;;;;6.78;4.47;;;;;;;3.89;70.33;91863.53;5043490;28;20033;-80
2022/12/08 08:50:24;;;;;;;6.93;3.53;;;;;;;4.09;70.69;91859.38;5057237;28;20036;-80
2022/12/08 08:52:50;;;;;;;6.07;3.10;;;;;;;6.10;70.62;91846.97;5066374;28;20080;-80
2022/12/08 08:55:16;;;;;;;4.90;2.45;;;;;;;6.99;63.84;91847.34;5027663;28;20044;-79
2022/12/08 08:57:42;;;;;;;3.60;2.10;;;;;;;8.29;56.53;91845.22;5055383;28;20498;-79
2022/12/08 09:00:09;;;;;;;4.85;2.47;;;;;;;10.32;51.17;91837.94;5062154;28;20658;-80
2022/12/08 09:02:36;;;;;;;4.43;2.60;;;;;;;11.91;44.50;91844.84;5056939;28;20086;-80
2022/12/08 09:05:04;;;;;;;4.18;2.35;;;;;;;12.65;42.01;91833.28;5071546;28;20035;-81
2022/12/08 09:07:29;;;;;;;7.30;2.33;;;;;;;11.85;42.38;91833.69;5046604;28;20032;-80
2022/12/08 09:09:56;;;;;;;3.95;2.00;;;;;;;11.38;44.33;91828.28;5056653;28;20048;-81
2022/12/08 09:12:22;;;;;;;4.63;2.40;;;;;;;10.80;45.04;91829.34;5054017;28;20089;-76
2022/12/08 09:14:48;;;;;;;6.03;2.42;;;;;;;9.97;48.08;91842.91;5053732;28;20039;-76
2022/12/08 09:17:14;;;;;;;4.55;2.33;;;;;;;9.57;48.28;91840.94;5054046;28;20033;-76
2022/12/08 09:19:39;;;;;;;3.50;1.98;;;;;;;9.27;49.38;91847.56;5072006;28;20043;-76
2022/12/08 09:22:06;;;;;;;5.30;2.38;;;;;;;9.03;50.43;91836.56;5054720;28;20020;-76
2022/12/08 09:24:32;;;;;;;4.38;2.47;;;;;;;8.76;51.13;91838.16;5071876;28;20123;-76
2022/12/08 09:26:57;;;;;;;3.90;2.40;;;;;;;8.72;50.82;91831.94;5053941;28;20119;-75
2022/12/08 09:29:24;;;;;;;4.45;2.42;;;;;;;8.42;52.89;91834.06;5071732;28;20454;-76
2022/12/08 09:31:50;;;;;;;4.10;2.30;;;;;;;8.33;51.72;91830.53;5071795;28;20052;-76
2022/12/08 09:34:16;;;;;;;4.70;2.35;;;;;;;7.99;52.64;91830.84;5054216;28;20044;-75
2022/12/08 09:36:43;;;;;;;4.13;2.40;;;;;;;8.03;51.00;91827.38;5054289;28;20036;-76
2022/12/08 09:39:08;;;;;;;4.45;2.20;;;;;;;8.32;54.65;91828.97;5071401;28;20028;-75
2022/12/08 09:41:44;;;;;;;6.60;2.63;;;;;;;8.05;51.47;91824.50;5071829;28;20040;-76
2022/12/08 09:44:34;;;;;;;3.90;2.00;;;;;;;7.85;52.39;91831.56;5072412;28;20028;-76
2022/12/08 09:47:04;;;;;;;3.85;2.10;;;;;;;7.65;52.83;91832.66;5054482;28;20040;-76
2022/12/08 09:49:38;;;;;;;2.33;1.65;;;;;;;7.44;53.08;91834.00;5054358;28;20036;-76
2022/12/08 09:52:12;;;;;;;3.65;1.95;;;;;;;7.46;54.25;91831.91;5053941;28;20053;-75
2022/12/08 09:54:39;;;;;;;4.65;1.90;;;;;;;7.11;55.41;91825.34;5036542;28;20029;-76
2022/12/08 09:57:12;;;;;;;5.55;2.20;;;;;;;6.80;56.67;91818.72;5053159;28;20123;-76
2022/12/08 09:59:39;;;;;;;4.85;2.30;;;;;;;6.47;57.48;91822.97;5071242;28;20045;-76
2022/12/08 10:02:19;;;;;;;6.72;2.05;;;;;;;6.25;59.56;91828.66;5071713;28;20036;-75
2022/12/08 10:04:47;;;;;;;4.47;2.30;;;;;;;6.16;58.40;91819.91;5071262;28;20111;-75
2022/12/08 10:07:53;;;;;;;5.38;2.60;;;;;;;6.24;57.39;91821.91;5053425;28;20116;-75
2022/12/08 10:10:41;;;;;;;3.00;1.70;;;;;;;6.46;57.46;91819.59;5050082;28;20123;-75
2022/12/08 10:13:18;;;;;;;4.53;2.20;;;;;;;6.64;57.52;91814.72;5070960;28;20051;-75
2022/12/08 10:16:08;;;;;;;5.53;2.60;;;;;;;6.61;57.79;91812.69;5053640;28;20039;-75
2022/12/08 10:18:36;;;;;;;5.15;2.38;;;;;;;6.61;56.63;91804.88;5053315;28;20039;-75
2022/12/08 10:21:19;;;;;;;4.32;2.35;;;;;;;6.81;57.13;91798.66;5070745;28;20498;-75
2022/12/08 10:23:57;;;;;;;4.38;2.20;;;;;;;6.98;55.42;91798.19;5053046;28;20040;-75
2022/12/08 10:26:24;;;;;;;5.20;2.53;;;;;;;6.64;56.92;91789.50;5053398;28;20072;-75
2022/12/08 10:28:50;;;;;;;5.78;2.53;;;;;;;6.95;56.19;91801.34;5037605;28;20065;-78
2022/12/08 10:31:21;;;;;;;4.72;2.35;;;;;;;7.08;55.54;91798.06;5071951;28;20569;-76
2022/12/08 10:33:57;;;;;;;4.65;2.35;;;;;;;7.20;56.97;91795.78;5071408;28;20036;-75
2022/12/08 10:36:44;;;;;;;4.38;2.50;;;;;;;7.17;56.54;91804.19;5071404;28;20044;-75
2022/12/08 10:39:36;;;;;;;4.45;2.22;;;;;;;7.00;56.71;91809.09;5036437;28;20490;-75
2022/12/08 10:42:01;;;;;;;5.15;2.20;;;;;;;7.32;57.68;91802.41;5052790;28;20090;-75
2022/12/08 10:44:27;;;;;;;5.47;2.38;;;;;;;7.23;56.27;91797.84;5052455;28;20480;-75
2022/12/08 10:46:53;;;;;;;4.43;2.45;;;;;;;7.56;55.35;91803.09;5070581;28;20500;-75
2022/12/08 10:49:31;;;;;;;4.18;2.10;;;;;;;7.88;54.42;91801.56;5070638;28;20249;-77
2022/12/08 10:51:57;;;;;;;7.22;2.38;;;;;;;8.40;54.46;91802.28;5052913;28;20033;-76
2022/12/08 10:54:36;;;;;;;4.78;2.20;;;;;;;8.44;51.35;91802.47;5070662;28;20406;-76
2022/12/08 10:57:01;;;;;;;3.97;2.20;;;;;;;8.14;52.32;91797.47;5071195;28;20429;-75
2022/12/08 10:59:28;;;;;;;5.80;2.40;;;;;;;7.83;52.55;91791.22;5071905;28;20045;-75
2022/12/08 11:01:55;;;;;;;5.00;2.08;;;;;;;7.56;54.61;91792.69;5036062;28;20059;-76
2022/12/08 11:04:20;;;;;;;3.95;2.17;;;;;;;7.21;55.33;91786.94;5051929;28;20652;-76
2022/12/08 11:06:48;;;;;;;4.85;2.28;;;;;;;7.19;55.94;91780.47;5070721;28;20086;-76
2022/12/08 11:09:14;;;;;;;4.53;2.40;;;;;;;7.00;55.41;91781.25;5052640;28;20498;-76
2022/12/08 11:11:56;;;;;;;4.82;2.33;;;;;;;6.75;57.03;91784.94;5070025;28;20027;-76
2022/12/08 11:14:25;;;;;;;6.70;2.67;;;;;;;6.36;57.23;91783.31;5070743;28;20449;-75
2022/12/08 11:17:12;;;;;;;3.65;2.22;;;;;;;6.41;57.87;91785.06;5052870;28;20271;-75
2022/12/08 11:19:59;;;;;;;3.90;2.15;;;;;;;6.85;55.67;91777.00;5029034;28;20049;-76
2022/12/08 11:22:25;;;;;;;3.70;2.00;;;;;;;6.56;54.68;91784.13;5053861;28;20128;-78
2022/12/08 11:25:25;;;;;;;3.50;2.30;;;;;;;6.72;54.76;91790.69;5053447;28;20530;-76
2022/12/08 11:27:55;;;;;;;4.50;2.50;;;;;;;6.99;54.18;91778.91;5071053;28;20104;-77
2022/12/08 11:30:29;;;;;;;4.35;2.28;;;;;;;7.65;52.76;91767.53;5072326;28;20090;-78
2022/12/08 11:33:00;;;;;;;3.63;1.88;;;;;;;7.72;53.14;91780.97;5053518;28;20126;-76
2022/12/08 11:35:30;;;;;;;4.72;2.70;;;;;;;7.55;53.33;91779.97;5072520;28;20115;-76
2022/12/08 11:38:03;;;;;;;4.60;2.30;;;;;;;7.04;55.01;91773.63;5056734;28;20074;-76
2022/12/08 11:40:34;;;;;;;4.45;2.30;;;;;;;6.81;55.30;91773.41;5074508;28;20033;-78
2022/12/08 11:43:12;;;;;;;4.45;2.45;;;;;;;6.13;57.58;91771.09;5075129;28;20028;-77
2022/12/08 11:45:40;;;;;;;5.70;2.45;;;;;;;6.01;57.48;91766.25;5068665;28;20039;-79
2022/12/08 11:48:33;;;;;;;8.63;2.35;;;;;;;6.14;56.64;91764.81;5055447;28;20086;-77
2022/12/08 11:51:11;;;;;;;3.50;2.08;;;;;;;5.84;58.46;91757.03;5055859;28;20040;-75
2022/12/08 11:53:53;;;;;;;4.80;2.50;;;;;;;5.70;59.19;91747.56;5073695;28;20415;-77